createdAt,value
2022-12-25T00:02:27.243Z,3.22
2022-12-25T00:05:30.471Z,4.40
2022-12-25T00:08:34.328Z,16.63
2022-12-25T00:14:40.296Z,4.47
2022-12-25T00:17:43.459Z,1.83
2022-12-25T00:20:46.532Z,16.15
2022-12-25T00:23:55.099Z,4.97
2022-12-25T00:26:58.162Z,10.53
2022-12-25T00:30:02.493Z,7.00
2022-12-25T00:33:05.475Z,5.70
2022-12-25T00:36:09.951Z,3.07
2022-12-25T00:39:13.145Z,5.53
2022-12-25T00:42:21.926Z,2.13
2022-12-25T00:45:25.145Z,5.03
2022-12-25T00:48:29.493Z,7.15
2022-12-25T00:51:33.634Z,7.30
2022-12-25T00:54:37.942Z,5.97
2022-12-25T01:00:43.802Z,9.03
2022-12-25T01:03:47.087Z,3.25
2022-12-25T01:06:50.255Z,5.65
2022-12-25T01:10:12.008Z,6.60
2022-12-25T01:13:15.067Z,3.63
2022-12-25T01:16:18.464Z,5.33
2022-12-25T01:19:21.552Z,3.42
2022-12-25T01:22:24.707Z,3.93
2022-12-25T01:25:27.835Z,4.75
2022-12-25T01:28:31.010Z,3.60
2022-12-25T01:31:34.111Z,3.50
2022-12-25T01:34:37.325Z,3.57
2022-12-25T01:37:40.416Z,3.17
2022-12-25T01:40:43.548Z,3.60
2022-12-25T01:43:58.947Z,6.07
2022-12-25T01:47:02.636Z,4.20
2022-12-25T01:50:06.987Z,7.03
2022-12-25T01:53:10.263Z,9.30
2022-12-25T01:56:13.651Z,10.70
2022-12-25T01:59:20.325Z,4.35
2022-12-25T02:02:23.867Z,4.18
2022-12-25T02:05:32.789Z,4.82
2022-12-25T02:08:35.931Z,10.30
2022-12-25T02:11:57.309Z,5.43
2022-12-25T02:15:06.078Z,7.88
2022-12-25T02:18:28.024Z,9.45
2022-12-25T02:21:48.038Z,7.53
2022-12-25T02:25:14.579Z,7.90
2022-12-25T02:28:29.945Z,4.80
2022-12-25T02:31:58.052Z,23.23
2022-12-25T02:35:15.938Z,6.57
2022-12-25T02:38:33.800Z,6.60
2022-12-25T02:41:39.920Z,13.55
2022-12-25T02:45:04.976Z,8.55
2022-12-25T02:48:27.693Z,16.75
2022-12-25T02:51:53.716Z,15.52
2022-12-25T02:55:22.406Z,24.05
2022-12-25T02:58:45.663Z,40.60
2022-12-25T03:02:07.206Z,14.35
2022-12-25T03:05:32.326Z,15.27
2022-12-25T03:08:41.510Z,11.98
2022-12-25T03:11:46.350Z,18.73
2022-12-25T03:15:08.475Z,9.95
2022-12-25T03:18:16.611Z,22.90
2022-12-25T03:21:38.233Z,21.75
2022-12-25T03:25:00.421Z,12.60
2022-12-25T03:28:06.393Z,16.08
2022-12-25T03:31:32.466Z,13.10
2022-12-25T03:35:23.500Z,11.40
2022-12-25T03:38:50.502Z,10.07
2022-12-25T03:42:21.024Z,15.55
2022-12-25T03:46:00.621Z,5.95
2022-12-25T03:49:55.273Z,14.02
2022-12-25T03:53:21.428Z,11.57
2022-12-25T03:56:44.009Z,14.55
2022-12-25T04:00:05.467Z,18.65
2022-12-25T04:03:30.270Z,11.18
2022-12-25T04:06:53.900Z,20.38
2022-12-25T04:10:15.296Z,17.50
2022-12-25T04:13:36.691Z,19.50
2022-12-25T04:16:58.028Z,19.48
2022-12-25T04:20:19.452Z,20.00
2022-12-25T04:23:40.673Z,23.00
2022-12-25T04:27:02.227Z,19.10
2022-12-25T04:30:24.321Z,24.10
2022-12-25T04:33:45.883Z,30.20
2022-12-25T04:36:49.003Z,17.30
2022-12-25T04:39:52.065Z,27.50
2022-12-25T04:42:55.200Z,43.33
2022-12-25T04:46:00.593Z,58.53
2022-12-25T04:49:03.769Z,66.38
2022-12-25T04:52:07.096Z,73.80
2022-12-25T04:55:11.455Z,58.28
2022-12-25T05:01:18.351Z,49.72
2022-12-25T05:04:21.724Z,81.20
2022-12-25T05:07:24.878Z,141.90
2022-12-25T05:10:27.922Z,131.38
2022-12-25T05:13:31.024Z,131.20
2022-12-25T05:16:34.262Z,144.45
2022-12-25T05:19:37.502Z,136.90
2022-12-25T05:22:42.423Z,125.78
2022-12-25T05:25:45.512Z,142.00
2022-12-25T05:28:48.722Z,109.82
2022-12-25T05:31:51.764Z,111.20
2022-12-25T05:34:54.939Z,125.38
2022-12-25T05:37:58.028Z,108.35
2022-12-25T05:41:01.668Z,160.35
2022-12-25T05:44:04.989Z,121.72
2022-12-25T05:47:08.126Z,92.32
2022-12-25T05:50:11.396Z,132.90
2022-12-25T05:53:16.090Z,131.88
2022-12-25T05:56:19.169Z,103.47
2022-12-25T05:59:22.282Z,148.30
2022-12-25T06:02:26.051Z,144.68
2022-12-25T06:05:29.362Z,110.07
2022-12-25T06:08:32.513Z,71.30
2022-12-25T06:11:35.583Z,63.35
2022-12-25T06:14:38.679Z,42.38
2022-12-25T06:17:41.853Z,44.63
2022-12-25T06:20:44.913Z,39.17
2022-12-25T06:23:48.476Z,39.13
2022-12-25T06:26:51.862Z,32.28
2022-12-25T06:29:55.486Z,42.13
2022-12-25T06:33:00.174Z,48.95
2022-12-25T06:36:12.611Z,60.30
2022-12-25T06:39:15.652Z,72.38
2022-12-25T06:42:18.867Z,147.25
2022-12-25T06:45:22.060Z,147.38
2022-12-25T06:48:25.098Z,119.30
2022-12-25T06:51:30.866Z,187.68
2022-12-25T06:54:34.047Z,220.45
2022-12-25T06:57:37.272Z,185.88
2022-12-25T07:00:40.695Z,185.82
2022-12-25T07:03:46.445Z,187.60
2022-12-25T07:06:49.504Z,169.85
2022-12-25T07:09:52.698Z,170.07
2022-12-25T07:12:55.783Z,140.82
2022-12-25T07:16:03.764Z,90.18
2022-12-25T07:19:06.877Z,89.47
2022-12-25T07:22:10.312Z,63.78
2022-12-25T07:25:13.398Z,56.13
2022-12-25T07:28:16.487Z,85.47
2022-12-25T07:31:19.884Z,94.60
2022-12-25T07:34:24.548Z,96.87
2022-12-25T07:37:27.634Z,69.45
2022-12-25T07:40:30.708Z,60.63
2022-12-25T07:43:33.722Z,52.03
2022-12-25T07:46:36.781Z,44.35
2022-12-25T07:49:39.938Z,31.70
2022-12-25T07:52:44.062Z,41.63
2022-12-25T07:55:47.173Z,40.78
2022-12-25T07:58:50.792Z,38.85
2022-12-25T08:01:54.018Z,43.08
2022-12-25T08:04:57.292Z,49.77
2022-12-25T08:08:00.488Z,38.42
2022-12-25T08:11:04.266Z,30.17
2022-12-25T08:14:09.084Z,37.95
2022-12-25T08:17:12.182Z,24.23
2022-12-25T08:20:15.421Z,36.83
2022-12-25T08:23:18.835Z,21.08
2022-12-25T08:26:23.231Z,21.25
2022-12-25T08:29:26.420Z,21.67
2022-12-25T08:32:29.472Z,21.38
2022-12-25T08:35:34.944Z,13.20
2022-12-25T08:38:38.523Z,11.82
2022-12-25T08:41:41.619Z,27.35
2022-12-25T08:44:44.861Z,15.25
2022-12-25T08:47:47.949Z,9.03
2022-12-25T08:50:52.665Z,26.50
2022-12-25T08:54:00.220Z,13.90
2022-12-25T08:57:04.756Z,9.32
2022-12-25T09:00:09.019Z,4.53
2022-12-25T09:03:12.156Z,5.82
2022-12-25T09:06:17.391Z,9.67
2022-12-25T09:09:20.508Z,8.85
2022-12-25T09:12:23.554Z,8.80
2022-12-25T09:15:27.384Z,8.90
2022-12-25T09:18:30.656Z,9.30
2022-12-25T09:21:33.840Z,16.25
2022-12-25T09:24:37.164Z,7.37
2022-12-25T09:27:40.302Z,25.55
2022-12-25T09:30:43.357Z,34.28
2022-12-25T09:33:46.541Z,15.80
2022-12-25T09:36:49.710Z,34.90
2022-12-25T09:39:52.847Z,13.05
2022-12-25T09:42:56.797Z,10.68
2022-12-25T09:46:02.930Z,25.90
2022-12-25T09:49:26.589Z,19.42
2022-12-25T09:52:38.456Z,21.48
2022-12-25T09:55:50.470Z,32.45
2022-12-25T09:58:54.336Z,9.95
2022-12-25T10:02:21.843Z,4.25
2022-12-25T10:06:02.187Z,7.43
2022-12-25T10:09:16.433Z,3.45
2022-12-25T10:12:33.302Z,9.43
2022-12-25T10:15:59.723Z,24.13
2022-12-25T10:19:17.750Z,10.82
2022-12-25T10:22:45.181Z,9.00
2022-12-25T10:25:49.003Z,19.13
2022-12-25T10:29:18.177Z,15.30
2022-12-25T10:32:21.900Z,30.80
2022-12-25T10:35:28.561Z,21.98
2022-12-25T10:38:31.666Z,22.60
2022-12-25T10:42:03.800Z,17.33
2022-12-25T10:45:09.749Z,22.70
2022-12-25T10:48:22.670Z,21.10
2022-12-25T10:51:33.630Z,32.78
2022-12-25T10:54:37.524Z,34.75
2022-12-25T10:57:47.690Z,28.27
2022-12-25T11:01:07.895Z,29.33
2022-12-25T11:04:20.715Z,32.80
2022-12-25T11:07:26.307Z,17.45
2022-12-25T11:10:34.045Z,37.20
2022-12-25T11:13:48.264Z,18.90
2022-12-25T11:16:51.370Z,36.25
2022-12-25T11:20:03.390Z,28.57
2022-12-25T11:23:11.435Z,40.08
2022-12-25T11:26:19.680Z,19.65
2022-12-25T11:29:40.804Z,26.65
2022-12-25T11:32:53.143Z,14.40
2022-12-25T11:35:58.836Z,19.20
2022-12-25T11:39:23.481Z,11.85
2022-12-25T11:42:45.113Z,16.00
2022-12-25T11:46:09.416Z,24.38
2022-12-25T11:49:19.579Z,7.55
2022-12-25T11:52:23.515Z,11.48
2022-12-25T11:55:43.400Z,13.77
2022-12-25T11:59:01.461Z,15.05
2022-12-25T12:02:20.838Z,15.93
2022-12-25T12:05:29.380Z,14.90
2022-12-25T12:08:33.634Z,12.40
2022-12-25T12:11:45.764Z,10.32
2022-12-25T12:14:59.627Z,12.80
2022-12-25T12:18:24.969Z,21.15
2022-12-25T12:21:31.831Z,13.13
2022-12-25T12:24:43.851Z,28.77
2022-12-25T12:27:47.189Z,27.58
2022-12-25T12:30:59.304Z,21.33
2022-12-25T12:34:02.885Z,14.93
2022-12-25T12:37:24.436Z,26.85
2022-12-25T12:40:42.330Z,11.70
2022-12-25T12:43:53.906Z,16.70
2022-12-25T12:46:58.260Z,14.40
2022-12-25T12:50:02.369Z,21.63
2022-12-25T12:56:27.705Z,11.05
2022-12-25T12:59:47.624Z,8.10
2022-12-25T13:03:05.831Z,24.05
2022-12-25T13:06:27.488Z,14.05
2022-12-25T13:09:49.189Z,19.13
2022-12-25T13:12:59.517Z,12.23
2022-12-25T13:16:02.796Z,8.50
2022-12-25T13:19:08.621Z,11.55
2022-12-25T13:22:25.191Z,13.82
2022-12-25T13:25:29.677Z,2.47
2022-12-25T13:28:35.541Z,2.90
2022-12-25T13:31:41.249Z,4.70
2022-12-25T13:34:44.532Z,10.13
2022-12-25T13:37:48.855Z,3.97
2022-12-25T13:41:15.700Z,5.60
2022-12-25T13:44:30.332Z,11.05
2022-12-25T13:47:39.193Z,0.57
2022-12-25T13:50:47.300Z,9.77
2022-12-25T13:53:50.425Z,4.03
2022-12-25T13:56:56.291Z,3.17
2022-12-25T14:00:00.580Z,6.60
2022-12-25T14:03:08.830Z,4.93
2022-12-25T14:06:33.104Z,0.85
2022-12-25T14:09:37.106Z,5.15
2022-12-25T14:15:45.002Z,3.83
2022-12-25T14:18:57.599Z,15.60
2022-12-25T14:22:26.106Z,9.30
2022-12-25T14:25:34.270Z,15.68
2022-12-25T14:28:38.353Z,12.93
2022-12-25T14:34:47.174Z,9.43
2022-12-25T14:37:54.887Z,12.40
2022-12-25T14:41:33.989Z,9.85
2022-12-25T14:44:41.385Z,18.02
2022-12-25T14:48:03.656Z,14.25
2022-12-25T14:51:19.130Z,12.27
2022-12-25T14:54:24.261Z,12.48
2022-12-25T14:57:31.629Z,8.15
2022-12-25T15:00:41.206Z,12.63
2022-12-25T15:03:44.665Z,12.33
2022-12-25T15:06:57.855Z,15.55
2022-12-25T15:10:36.418Z,9.82
2022-12-25T15:13:25.456Z,9.05
2022-12-25T15:16:48.856Z,18.08
2022-12-25T15:19:52.654Z,6.40
2022-12-25T15:23:18.481Z,11.15
2022-12-25T15:26:19.077Z,7.40
2022-12-25T15:29:44.781Z,12.93
2022-12-25T15:32:46.102Z,8.75
2022-12-25T15:35:49.720Z,9.55
2022-12-25T15:38:53.640Z,13.90
2022-12-25T15:42:11.886Z,8.10
2022-12-25T15:45:24.069Z,19.65
2022-12-25T15:48:27.325Z,5.32
2022-12-25T15:51:30.495Z,4.63
2022-12-25T15:54:33.993Z,5.40
2022-12-25T15:57:38.595Z,4.18
2022-12-25T16:00:41.835Z,1.33
2022-12-25T16:03:45.527Z,3.67
2022-12-25T16:06:48.880Z,3.00
2022-12-25T16:09:52.856Z,3.72
2022-12-25T16:15:59.011Z,8.35
2022-12-25T16:19:02.390Z,2.60
2022-12-25T16:22:13.903Z,4.00
2022-12-25T16:25:19.416Z,8.73
2022-12-25T16:28:22.441Z,6.50
2022-12-25T16:31:25.672Z,16.87
2022-12-25T16:34:29.162Z,9.75
2022-12-25T16:37:32.495Z,7.75
2022-12-25T16:40:36.074Z,7.28
2022-12-25T16:43:39.549Z,8.27
2022-12-25T16:46:42.813Z,11.90
2022-12-25T16:49:46.199Z,15.00
2022-12-25T16:52:49.205Z,15.07
2022-12-25T16:55:52.276Z,30.13
2022-12-25T16:58:57.433Z,16.77
2022-12-25T17:02:00.684Z,6.07
2022-12-25T17:05:03.898Z,10.52
2022-12-25T17:08:07.049Z,15.03
2022-12-25T17:11:10.389Z,9.97
2022-12-25T17:14:13.470Z,10.85
2022-12-25T17:17:16.724Z,5.23
2022-12-25T17:20:19.824Z,13.45
2022-12-25T17:23:23.065Z,22.90
2022-12-25T17:26:26.398Z,11.57
2022-12-25T17:29:29.784Z,8.13
2022-12-25T17:32:32.866Z,4.13
2022-12-25T17:35:38.029Z,7.27
2022-12-25T17:38:41.510Z,17.67
2022-12-25T17:41:44.573Z,7.25
2022-12-25T17:44:47.602Z,6.47
2022-12-25T17:47:55.453Z,10.57
2022-12-25T17:51:02.888Z,13.50
2022-12-25T17:54:06.051Z,9.20
2022-12-25T17:57:09.560Z,5.45
2022-12-25T18:00:13.844Z,6.60
2022-12-25T18:03:17.435Z,6.17
2022-12-25T18:06:23.581Z,16.02
2022-12-25T18:09:26.618Z,14.63
2022-12-25T18:12:29.675Z,10.60
2022-12-25T18:15:32.939Z,17.77
2022-12-25T18:18:36.534Z,24.90
2022-12-25T18:21:39.758Z,14.68
2022-12-25T18:24:44.827Z,17.10
2022-12-25T18:27:47.940Z,11.00
2022-12-25T18:30:51.132Z,21.23
2022-12-25T18:33:54.665Z,13.52
2022-12-25T18:37:03.454Z,9.25
2022-12-25T18:40:07.144Z,11.63
2022-12-25T18:43:10.783Z,8.43
2022-12-25T18:46:14.717Z,11.77
2022-12-25T18:52:48.781Z,15.70
2022-12-25T18:55:43.683Z,10.47
2022-12-25T18:58:47.891Z,9.73
2022-12-25T19:01:51.134Z,11.70
2022-12-25T19:04:55.222Z,10.02
2022-12-25T19:11:01.704Z,7.17
2022-12-25T19:14:04.812Z,5.85
2022-12-25T19:17:11.088Z,8.68
2022-12-25T19:20:14.250Z,16.53
2022-12-25T19:23:17.320Z,16.70
2022-12-25T19:26:20.552Z,30.27
2022-12-25T19:29:23.864Z,19.90
2022-12-25T19:32:26.887Z,38.42
2022-12-25T19:35:29.958Z,54.95
2022-12-25T19:38:33.390Z,19.67
2022-12-25T19:41:37.350Z,22.83
2022-12-25T19:44:40.695Z,24.65
2022-12-25T19:47:44.929Z,29.98
2022-12-25T19:50:48.258Z,53.03
2022-12-25T19:53:51.857Z,48.35
2022-12-25T19:56:54.920Z,27.95
2022-12-25T19:59:58.056Z,32.58
2022-12-25T20:03:02.032Z,31.17
2022-12-25T20:06:06.875Z,38.07
2022-12-25T20:09:13.913Z,57.00
2022-12-25T20:12:17.131Z,42.87
2022-12-25T20:15:20.447Z,35.15
2022-12-25T20:18:23.467Z,36.97
2022-12-25T20:21:30.401Z,30.40
2022-12-25T20:24:33.453Z,26.10
2022-12-25T20:27:36.574Z,40.70
2022-12-25T20:30:40.534Z,32.28
2022-12-25T20:33:45.174Z,23.30
2022-12-25T20:36:49.831Z,17.80
2022-12-25T20:39:52.905Z,26.50
2022-12-25T20:42:55.961Z,18.47
2022-12-25T20:45:59.810Z,23.40
2022-12-25T20:52:06.109Z,14.13
2022-12-25T20:55:09.529Z,10.55
2022-12-25T20:58:13.153Z,25.67
2022-12-25T21:01:18.614Z,35.25
2022-12-25T21:04:22.052Z,28.13
2022-12-25T21:07:25.120Z,43.17
2022-12-25T21:10:28.253Z,52.83
2022-12-25T21:13:33.971Z,46.03
2022-12-25T21:16:37.173Z,24.10
2022-12-25T21:19:40.281Z,22.23
2022-12-25T21:22:43.415Z,22.25
2022-12-25T21:25:47.415Z,24.42
2022-12-25T21:28:52.575Z,31.73
2022-12-25T21:32:14.164Z,26.63
2022-12-25T21:35:17.300Z,32.67
2022-12-25T21:38:20.376Z,33.40
2022-12-25T21:41:24.299Z,28.55
2022-12-25T21:48:00.323Z,26.37
2022-12-25T21:51:11.245Z,55.07
2022-12-25T21:54:15.419Z,40.80
2022-12-25T21:57:18.511Z,31.93
2022-12-25T22:00:21.928Z,46.42
2022-12-25T22:03:25.173Z,33.05
2022-12-25T22:06:47.223Z,37.20
2022-12-25T22:09:52.242Z,48.77
2022-12-25T22:13:13.938Z,66.30
2022-12-25T22:16:35.690Z,37.00
2022-12-25T22:19:45.376Z,67.47
2022-12-25T22:22:49.509Z,71.67
2022-12-25T22:28:55.259Z,39.00
2022-12-25T22:31:58.378Z,51.17
2022-12-25T22:35:02.997Z,80.30
2022-12-25T22:38:06.063Z,67.03
2022-12-25T22:41:09.262Z,7.93
2022-12-25T22:44:17.495Z,59.03
2022-12-25T22:47:21.455Z,40.13
2022-12-25T22:50:24.518Z,11.30
2022-12-25T22:53:28.165Z,15.02
2022-12-25T22:56:31.453Z,16.40
2022-12-25T22:59:34.929Z,12.98
2022-12-25T23:02:38.189Z,16.15
2022-12-25T23:05:41.481Z,3.17
2022-12-25T23:08:44.581Z,16.27
2022-12-25T23:11:47.713Z,13.25
2022-12-25T23:14:50.810Z,31.27
2022-12-25T23:18:12.302Z,29.75
2022-12-25T23:21:35.611Z,15.53
2022-12-25T23:24:56.915Z,7.10
2022-12-25T23:27:59.948Z,15.93
2022-12-25T23:31:03.207Z,6.15
2022-12-25T23:34:07.283Z,15.10
2022-12-25T23:37:11.561Z,14.47
2022-12-25T23:40:14.658Z,8.17
2022-12-25T23:43:17.746Z,9.60
2022-12-25T23:46:20.980Z,9.77
2022-12-25T23:49:26.013Z,9.40
2022-12-25T23:52:29.184Z,6.23
2022-12-25T23:55:34.086Z,4.65
2022-12-25T23:58:37.370Z,34.77
